createdAt,value
2018-10-21T00:01:14.194Z,13.73
2018-10-21T00:04:18.665Z,13.10
2018-10-21T00:07:23.045Z,15.13
2018-10-21T00:10:27.351Z,13.17
2018-10-21T00:13:31.905Z,16.10
2018-10-21T00:16:36.250Z,15.97
2018-10-21T00:19:40.520Z,13.50
2018-10-21T00:22:44.838Z,12.80
2018-10-21T00:25:49.187Z,13.80
2018-10-21T00:28:53.643Z,13.47
2018-10-21T00:31:58.009Z,20.47
2018-10-21T00:35:02.091Z,16.43
2018-10-21T00:38:06.487Z,14.70
2018-10-21T00:41:10.918Z,19.10
2018-10-21T00:44:15.276Z,15.37
2018-10-21T00:47:19.622Z,14.00
2018-10-21T00:50:23.779Z,15.33
2018-10-21T00:53:28.168Z,17.67
2018-10-21T00:56:32.417Z,15.30
2018-10-21T00:59:36.698Z,17.67
2018-10-21T01:02:41.086Z,13.63
2018-10-21T01:05:45.570Z,14.50
2018-10-21T01:08:49.730Z,14.60
2018-10-21T01:11:54.261Z,15.13
2018-10-21T01:14:58.623Z,19.80
2018-10-21T01:18:03.558Z,25.40
2018-10-21T01:21:07.877Z,21.57
2018-10-21T01:24:12.278Z,25.33
2018-10-21T01:27:16.668Z,27.60
2018-10-21T01:30:21.001Z,26.80
2018-10-21T01:33:25.290Z,23.00
2018-10-21T01:36:29.461Z,26.80
2018-10-21T01:39:44.336Z,29.07
2018-10-21T01:42:48.776Z,28.33
2018-10-21T01:45:53.232Z,27.37
2018-10-21T01:48:57.763Z,29.37
2018-10-21T01:52:02.336Z,31.83
2018-10-21T01:55:06.855Z,31.67
2018-10-21T01:58:12.022Z,30.47
2018-10-21T02:01:16.502Z,31.43
2018-10-21T02:04:20.958Z,29.73
2018-10-21T02:07:24.993Z,27.70
2018-10-21T02:10:29.178Z,32.63
2018-10-21T02:13:33.522Z,31.23
2018-10-21T02:16:37.941Z,28.00
2018-10-21T02:19:41.865Z,33.33
2018-10-21T02:22:46.286Z,29.73
2018-10-21T02:25:50.226Z,28.10
2018-10-21T02:28:54.368Z,24.77
2018-10-21T02:31:58.609Z,24.67
2018-10-21T02:35:02.765Z,24.77
2018-10-21T02:38:06.971Z,22.57
2018-10-21T02:41:57.172Z,29.00
2018-10-21T02:45:01.651Z,20.10
2018-10-21T02:48:05.977Z,22.90
2018-10-21T02:51:10.631Z,21.20
2018-10-21T02:54:14.887Z,20.53
2018-10-21T02:57:19.205Z,24.20
2018-10-21T03:00:23.524Z,20.37
2018-10-21T03:03:28.151Z,21.90
2018-10-21T03:06:33.134Z,18.50
2018-10-21T03:09:37.407Z,19.03
2018-10-21T03:12:41.734Z,18.67
2018-10-21T03:15:46.049Z,17.53
2018-10-21T03:18:50.406Z,18.57
2018-10-21T03:21:55.317Z,17.60
2018-10-21T03:24:59.522Z,18.23
2018-10-21T03:28:03.908Z,17.27
2018-10-21T03:31:08.347Z,17.33
2018-10-21T03:34:12.819Z,19.27
2018-10-21T03:37:17.194Z,18.80
2018-10-21T03:40:21.513Z,17.07
2018-10-21T03:43:25.878Z,17.17
2018-10-21T03:46:30.347Z,15.60
2018-10-21T03:49:34.727Z,20.70
2018-10-21T03:52:39.041Z,17.40
2018-10-21T03:55:43.822Z,18.00
2018-10-21T03:58:48.164Z,16.20
2018-10-21T04:01:52.387Z,15.03
2018-10-21T04:04:56.741Z,16.70
2018-10-21T04:08:01.035Z,18.80
2018-10-21T04:11:05.415Z,15.77
2018-10-21T04:14:09.862Z,15.60
2018-10-21T04:17:14.122Z,15.50
2018-10-21T04:20:18.347Z,13.13
2018-10-21T04:23:22.756Z,13.93
2018-10-21T04:26:27.106Z,16.03
2018-10-21T04:29:31.830Z,16.80
2018-10-21T04:32:38.311Z,16.10
2018-10-21T04:35:42.697Z,21.93
2018-10-21T04:40:05.374Z,16.33
2018-10-21T04:43:09.603Z,11.40
2018-10-21T04:46:14.003Z,11.90
2018-10-21T04:49:18.426Z,13.57
2018-10-21T04:52:23.025Z,14.03
2018-10-21T04:55:27.214Z,13.47
2018-10-21T04:58:31.474Z,13.47
2018-10-21T05:01:35.742Z,13.40
2018-10-21T05:04:40.044Z,13.77
2018-10-21T05:07:44.655Z,12.03
2018-10-21T05:10:48.923Z,15.43
2018-10-21T05:13:53.200Z,13.90
2018-10-21T05:16:57.556Z,12.23
2018-10-21T05:20:01.877Z,10.10
2018-10-21T05:23:06.193Z,9.40
2018-10-21T05:26:10.529Z,11.00
2018-10-21T05:29:14.844Z,8.53
2018-10-21T05:32:19.173Z,8.43
2018-10-21T05:35:23.537Z,9.80
2018-10-21T05:38:27.882Z,10.67
2018-10-21T05:41:32.247Z,10.23
2018-10-21T05:44:36.518Z,8.40
2018-10-21T05:47:41.265Z,9.23
2018-10-21T05:50:45.712Z,11.87
2018-10-21T05:53:50.089Z,12.87
2018-10-21T05:56:54.355Z,9.50
2018-10-21T05:59:58.718Z,9.03
2018-10-21T06:03:02.946Z,11.07
2018-10-21T06:06:07.230Z,8.60
2018-10-21T06:09:12.714Z,9.00
2018-10-21T06:12:17.007Z,8.57
2018-10-21T06:15:21.326Z,7.83
2018-10-21T06:18:27.646Z,7.90
2018-10-21T06:21:32.481Z,7.20
2018-10-21T06:24:36.675Z,8.77
2018-10-21T06:27:41.317Z,7.77
2018-10-21T06:30:45.202Z,5.70
2018-10-21T06:33:49.392Z,7.30
2018-10-21T06:36:53.876Z,9.63
2018-10-21T06:39:57.616Z,7.20
2018-10-21T06:43:01.940Z,6.40
2018-10-21T06:46:06.350Z,6.70
2018-10-21T06:49:10.702Z,5.70
2018-10-21T06:52:15.058Z,7.13
2018-10-21T06:55:19.184Z,6.60
2018-10-21T06:58:23.792Z,6.40
2018-10-21T07:01:28.575Z,5.43
2018-10-21T07:04:32.861Z,5.60
2018-10-21T07:07:37.253Z,4.30
2018-10-21T07:10:41.401Z,6.57
2018-10-21T07:13:45.569Z,4.50
2018-10-21T07:16:49.876Z,5.57
2018-10-21T07:19:54.380Z,4.63
2018-10-21T07:22:58.699Z,7.13
2018-10-21T07:26:03.007Z,10.20
2018-10-21T07:29:07.371Z,8.30
2018-10-21T07:32:11.757Z,8.30
2018-10-21T07:35:16.187Z,10.17
2018-10-21T07:38:26.872Z,10.93
2018-10-21T07:41:31.006Z,12.43
2018-10-21T07:44:35.369Z,11.00
2018-10-21T07:47:39.670Z,11.00
2018-10-21T07:50:44.135Z,10.57
2018-10-21T07:53:48.436Z,9.60
2018-10-21T07:56:53.697Z,10.03
2018-10-21T07:59:57.985Z,10.10
2018-10-21T08:03:02.370Z,11.43
2018-10-21T08:06:27.443Z,10.17
2018-10-21T08:09:32.209Z,10.00
2018-10-21T08:12:36.554Z,13.37
2018-10-21T08:15:41.593Z,11.60
2018-10-21T08:18:45.961Z,8.47
2018-10-21T08:21:50.349Z,10.33
2018-10-21T08:24:55.200Z,9.93
2018-10-21T08:27:59.646Z,10.27
2018-10-21T08:31:04.072Z,4.67
2018-10-21T08:34:08.393Z,4.53
2018-10-21T08:37:12.732Z,4.60
2018-10-21T08:40:16.851Z,3.97
2018-10-21T08:43:21.177Z,2.40
2018-10-21T08:46:25.694Z,1.90
2018-10-21T08:49:30.098Z,5.00
2018-10-21T08:52:34.522Z,7.20
2018-10-21T08:55:39.137Z,8.50
2018-10-21T08:58:43.477Z,8.50
2018-10-21T09:01:47.897Z,8.23
2018-10-21T09:04:52.304Z,7.27
2018-10-21T09:07:56.599Z,6.30
2018-10-21T09:11:00.933Z,5.80
2018-10-21T09:14:05.449Z,6.97
2018-10-21T09:17:09.578Z,5.90
2018-10-21T09:20:16.077Z,6.20
2018-10-21T09:23:20.269Z,7.80
2018-10-21T09:26:24.441Z,3.90
2018-10-21T09:29:28.746Z,4.80
2018-10-21T09:32:33.184Z,2.27
2018-10-21T09:35:37.536Z,4.00
2018-10-21T09:38:41.689Z,1.60
2018-10-21T09:41:46.173Z,2.07
2018-10-21T09:44:50.496Z,2.13
2018-10-21T09:47:54.807Z,3.13
2018-10-21T09:50:58.965Z,1.37
2018-10-21T09:54:03.288Z,2.60
2018-10-21T09:57:07.729Z,2.53
2018-10-21T10:00:12.184Z,1.47
2018-10-21T10:03:16.815Z,1.47
2018-10-21T10:06:21.155Z,1.30
2018-10-21T10:09:25.520Z,1.73
2018-10-21T10:12:29.783Z,2.00
2018-10-21T10:15:34.568Z,3.77
2018-10-21T10:18:38.917Z,2.00
2018-10-21T10:21:43.544Z,2.30
2018-10-21T10:24:47.941Z,3.80
2018-10-21T10:27:52.255Z,1.60
2018-10-21T10:30:56.852Z,1.40
2018-10-21T10:34:01.290Z,2.03
2018-10-21T10:37:05.605Z,1.30
2018-10-21T10:40:11.161Z,1.27
2018-10-21T10:43:15.521Z,1.43
2018-10-21T10:46:19.783Z,1.63
2018-10-21T10:49:24.180Z,2.27
2018-10-21T10:52:28.682Z,1.40
2018-10-21T10:55:38.160Z,1.77
2018-10-21T10:58:42.612Z,1.07
2018-10-21T11:01:47.019Z,1.33
2018-10-21T11:04:51.265Z,1.80
2018-10-21T11:07:55.811Z,3.33
2018-10-21T11:11:00.167Z,0.93
2018-10-21T11:14:04.751Z,1.27
2018-10-21T11:17:09.039Z,0.83
2018-10-21T11:20:13.569Z,0.80
2018-10-21T11:23:18.064Z,0.90
2018-10-21T11:26:22.380Z,0.87
2018-10-21T11:29:26.656Z,1.10
2018-10-21T11:32:30.855Z,1.10
2018-10-21T11:35:35.309Z,1.23
2018-10-21T11:38:39.645Z,1.60
2018-10-21T11:41:43.953Z,3.43
2018-10-21T11:44:49.309Z,2.17
2018-10-21T11:47:53.634Z,3.10
2018-10-21T11:50:57.594Z,1.13
2018-10-21T11:54:01.528Z,0.70
2018-10-21T11:57:06.223Z,1.37
2018-10-21T12:00:10.597Z,0.90
2018-10-21T12:03:14.545Z,1.33
2018-10-21T12:06:18.944Z,0.83
2018-10-21T12:09:23.238Z,1.70
2018-10-21T12:12:27.438Z,0.80
2018-10-21T12:15:31.729Z,1.77
2018-10-21T12:18:35.646Z,1.57
2018-10-21T12:21:39.555Z,0.67
2018-10-21T12:24:43.602Z,0.73
2018-10-21T12:27:47.820Z,0.73
2018-10-21T12:30:52.023Z,0.97
2018-10-21T12:33:56.441Z,0.60
2018-10-21T12:37:00.726Z,0.57
2018-10-21T12:40:06.198Z,0.90
2018-10-21T12:43:10.343Z,1.10
2018-10-21T12:46:14.564Z,1.27
2018-10-21T12:49:18.847Z,2.20
2018-10-21T12:52:23.130Z,0.80
2018-10-21T12:55:28.124Z,0.80
2018-10-21T12:58:32.522Z,0.97
2018-10-21T13:01:36.888Z,1.30
2018-10-21T13:04:41.259Z,0.90
2018-10-21T13:07:45.686Z,0.70
2018-10-21T13:10:49.937Z,0.80
2018-10-21T13:13:54.248Z,0.70
2018-10-21T13:16:58.781Z,0.57
2018-10-21T13:20:03.218Z,0.90
2018-10-21T13:23:07.535Z,0.90
2018-10-21T13:26:11.807Z,0.93
2018-10-21T13:29:16.273Z,0.70
2018-10-21T13:32:20.581Z,0.60
2018-10-21T13:35:24.926Z,0.80
2018-10-21T13:38:29.404Z,0.70
2018-10-21T13:41:34.170Z,0.73
2018-10-21T13:44:38.590Z,0.80
2018-10-21T13:47:42.885Z,1.13
2018-10-21T13:50:47.081Z,1.10
2018-10-21T13:53:51.460Z,0.77
2018-10-21T13:56:55.875Z,1.00
2018-10-21T14:00:00.169Z,1.13
2018-10-21T14:03:04.622Z,1.50
2018-10-21T14:06:09.070Z,1.80
2018-10-21T14:09:14.288Z,1.67
2018-10-21T14:12:18.611Z,0.93
2018-10-21T14:15:22.933Z,1.10
2018-10-21T14:18:27.361Z,0.83
2018-10-21T14:21:31.912Z,0.97
2018-10-21T14:24:36.657Z,1.20
2018-10-21T14:27:41.217Z,2.03
2018-10-21T14:30:45.508Z,1.70
2018-10-21T14:33:49.818Z,1.20
2018-10-21T14:36:53.883Z,2.33
2018-10-21T14:39:58.073Z,1.30
2018-10-21T14:43:02.461Z,3.33
2018-10-21T14:46:07.045Z,1.47
2018-10-21T14:49:11.410Z,2.80
2018-10-21T14:52:15.746Z,2.70
2018-10-21T14:55:20.242Z,1.53
2018-10-21T14:58:24.598Z,1.77
2018-10-21T15:01:29.069Z,1.33
2018-10-21T15:04:33.552Z,1.50
2018-10-21T15:07:37.962Z,1.37
2018-10-21T15:10:42.107Z,1.70
2018-10-21T15:13:46.605Z,1.80
2018-10-21T15:16:50.973Z,1.90
2018-10-21T15:19:55.338Z,1.80
2018-10-21T15:22:59.767Z,4.60
2018-10-21T15:26:04.416Z,2.60
2018-10-21T15:29:08.737Z,2.70
2018-10-21T15:32:13.200Z,2.10
2018-10-21T15:35:17.482Z,2.27
2018-10-21T15:38:21.686Z,4.40
2018-10-21T15:41:26.110Z,1.63
2018-10-21T15:44:30.667Z,1.80
2018-10-21T15:47:35.001Z,4.20
2018-10-21T15:50:39.315Z,2.37
2018-10-21T15:53:43.498Z,3.37
2018-10-21T15:56:47.950Z,2.37
2018-10-21T15:59:52.836Z,3.70
2018-10-21T16:02:56.968Z,3.03
2018-10-21T16:06:01.302Z,4.60
2018-10-21T16:09:08.366Z,3.83
2018-10-21T16:12:12.712Z,2.10
2018-10-21T16:15:17.267Z,2.10
2018-10-21T16:18:21.666Z,2.77
2018-10-21T16:21:25.990Z,2.93
2018-10-21T16:24:30.248Z,6.03
2018-10-21T16:27:34.477Z,3.10
2018-10-21T16:30:38.901Z,3.50
2018-10-21T16:33:43.249Z,3.10
2018-10-21T16:36:47.572Z,2.67
2018-10-21T16:39:51.826Z,3.47
2018-10-21T16:42:56.220Z,2.80
2018-10-21T16:46:00.507Z,3.20
2018-10-21T16:49:04.885Z,3.10
2018-10-21T16:52:09.182Z,3.43
2018-10-21T16:55:14.059Z,3.83
2018-10-21T16:58:18.358Z,6.00
2018-10-21T17:01:22.827Z,6.43
2018-10-21T17:04:27.109Z,6.63
2018-10-21T17:07:31.399Z,6.00
2018-10-21T17:10:36.052Z,4.73
2018-10-21T17:13:39.977Z,4.30
2018-10-21T17:16:44.265Z,4.83
2018-10-21T17:19:48.589Z,5.07
2018-10-21T17:22:52.498Z,5.33
2018-10-21T17:25:56.866Z,5.03
2018-10-21T17:29:01.166Z,9.50
2018-10-21T17:32:05.374Z,9.87
2018-10-21T17:35:10.265Z,9.13
2018-10-21T17:38:14.723Z,13.73
2018-10-21T17:41:19.795Z,11.43
2018-10-21T17:44:24.174Z,10.40
2018-10-21T17:47:28.445Z,11.47
2018-10-21T17:50:32.787Z,10.60
2018-10-21T17:53:36.951Z,8.93
2018-10-21T17:56:46.556Z,11.87
2018-10-21T17:59:50.995Z,12.03
2018-10-21T18:02:55.198Z,9.70
2018-10-21T18:05:59.414Z,9.03
2018-10-21T18:09:03.929Z,10.70
2018-10-21T18:12:08.235Z,11.10
2018-10-21T18:15:12.928Z,9.73
2018-10-21T18:18:17.230Z,10.23
2018-10-21T18:21:21.597Z,11.30
2018-10-21T18:24:25.858Z,9.47
2018-10-21T18:27:29.950Z,12.67
2018-10-21T18:30:34.405Z,11.93
2018-10-21T18:33:39.408Z,9.53
2018-10-21T18:36:43.930Z,9.70
2018-10-21T18:39:48.134Z,11.00
2018-10-21T18:42:52.796Z,17.37
2018-10-21T18:45:57.201Z,10.10
2018-10-21T18:49:01.740Z,8.87
2018-10-21T18:52:06.174Z,7.63
2018-10-21T18:55:11.229Z,9.20
2018-10-21T18:58:15.593Z,12.03
2018-10-21T19:01:19.856Z,8.73
2018-10-21T19:04:24.355Z,7.83
2018-10-21T19:07:28.748Z,9.00
2018-10-21T19:10:33.337Z,11.10
2018-10-21T19:13:37.718Z,9.07
2018-10-21T19:16:42.139Z,7.90
2018-10-21T19:19:46.586Z,8.90
2018-10-21T19:22:50.984Z,8.77
2018-10-21T19:25:55.575Z,8.00
2018-10-21T19:28:59.987Z,7.53
2018-10-21T19:32:04.578Z,10.30
2018-10-21T19:35:10.177Z,9.43
2018-10-21T19:38:14.398Z,9.17
2018-10-21T19:41:18.743Z,9.17
2018-10-21T19:44:23.204Z,12.10
2018-10-21T19:47:27.432Z,8.77
2018-10-21T19:50:31.799Z,9.20
2018-10-21T19:53:36.199Z,8.43
2018-10-21T19:56:40.711Z,10.53
2018-10-21T19:59:45.162Z,10.50
2018-10-21T20:02:49.541Z,9.83
2018-10-21T20:05:53.506Z,12.17
2018-10-21T20:08:57.963Z,18.90
2018-10-21T20:12:02.272Z,16.13
2018-10-21T20:15:07.425Z,14.30
2018-10-21T20:18:11.830Z,9.63
2018-10-21T20:21:16.257Z,11.80
2018-10-21T20:24:21.534Z,12.17
2018-10-21T20:27:25.693Z,7.57
2018-10-21T20:30:30.059Z,7.07
2018-10-21T20:33:33.980Z,9.40
2018-10-21T20:36:38.975Z,7.45
2018-10-21T20:39:43.232Z,8.00
2018-10-21T20:42:47.536Z,7.77
2018-10-21T20:45:51.446Z,8.30
2018-10-21T20:48:55.924Z,11.17
2018-10-21T20:52:00.224Z,6.90
2018-10-21T20:55:04.721Z,8.77
2018-10-21T20:58:09.126Z,8.37
2018-10-21T21:01:13.486Z,8.20
2018-10-21T21:04:18.111Z,7.70
2018-10-21T21:07:22.351Z,10.93
2018-10-21T21:10:26.711Z,7.30
2018-10-21T21:13:31.078Z,8.90
2018-10-21T21:16:35.321Z,7.63
2018-10-21T21:19:39.670Z,8.00
2018-10-21T21:22:44.521Z,11.13
2018-10-21T21:25:48.925Z,9.03
2018-10-21T21:28:54.207Z,9.90
2018-10-21T21:31:58.402Z,7.67
2018-10-21T21:35:02.798Z,8.87
2018-10-21T21:38:07.051Z,9.13
2018-10-21T21:41:12.252Z,7.30
2018-10-21T21:44:16.575Z,8.87
2018-10-21T21:47:20.853Z,10.50
2018-10-21T21:50:25.170Z,8.97
2018-10-21T21:53:29.514Z,8.33
2018-10-21T21:56:33.575Z,8.03
2018-10-21T21:59:37.881Z,9.20
2018-10-21T22:02:42.105Z,8.70
2018-10-21T22:05:46.493Z,9.17
2018-10-21T22:08:50.928Z,8.30
2018-10-21T22:11:55.399Z,7.47
2018-10-21T22:14:59.680Z,9.07
2018-10-21T22:18:04.069Z,7.53
2018-10-21T22:21:08.394Z,7.80
2018-10-21T22:24:12.717Z,8.53
2018-10-21T22:27:16.902Z,8.70
2018-10-21T22:30:27.908Z,11.03
2018-10-21T22:33:31.882Z,8.13
2018-10-21T22:36:36.429Z,8.80
2018-10-21T22:39:40.833Z,8.90
2018-10-21T22:42:44.825Z,12.03
2018-10-21T22:45:48.987Z,8.00
2018-10-21T22:48:53.486Z,7.90
2018-10-21T22:51:57.961Z,8.57
2018-10-21T22:55:02.165Z,8.17
2018-10-21T22:58:06.610Z,10.30
2018-10-21T23:01:10.847Z,16.50
2018-10-21T23:04:15.211Z,15.30
2018-10-21T23:07:19.579Z,14.20
2018-10-21T23:10:23.775Z,8.90
2018-10-21T23:13:28.135Z,13.37
2018-10-21T23:16:32.415Z,9.87
2018-10-21T23:19:45.717Z,10.00
2018-10-21T23:22:49.980Z,8.23
2018-10-21T23:25:54.352Z,8.93
2018-10-21T23:28:58.642Z,6.77
2018-10-21T23:32:03.160Z,7.73
2018-10-21T23:35:07.699Z,7.57
2018-10-21T23:38:12.051Z,7.17
2018-10-21T23:41:16.238Z,10.30
2018-10-21T23:44:20.279Z,7.20
2018-10-21T23:47:24.566Z,7.83
2018-10-21T23:50:28.922Z,9.00
2018-10-21T23:53:33.202Z,7.67
2018-10-21T23:56:37.442Z,8.63
2018-10-21T23:59:41.940Z,12.93
